Gasburg, Virginia
Current Conditions -  °F | °C
As of 9:36 AM on Tuesday 27 Jan 2015 (Local Time) from KAVC Reporting Station
Overcast Overcast  
Wind Chill: 25°   Ceiling: 5000
Heat Index: 31°   Visibility: 10mi
Dew Point: 27°   Wind: 6mph
Humidity: 85%   Direction: 350°N
Pressure: 29.88"   Gusts: NA
Location:  36.58°N, 77.88°W
Report Text: KAVC 271436Z AUTO 35005KT 10SM SCT012 BKN050 OVC075 M01/M03 A2988 RMK AO2 LTG DSNT E T10061028
Loading
Personal Weather Stations






























Interactive Weather Map New forecast layout! Learn more

10-Day Weather Forecast

Advertisements
Track Severe Weather on mobile